createdAt,value
2018-10-17T00:01:49.396Z,100.00
2018-10-17T00:04:19.541Z,100.00
2018-10-17T00:06:49.773Z,100.00
2018-10-17T00:09:19.919Z,100.00
2018-10-17T00:11:50.284Z,100.00
2018-10-17T00:14:20.491Z,100.00
2018-10-17T00:16:50.850Z,100.00
2018-10-17T00:19:20.970Z,100.00
2018-10-17T00:21:51.151Z,100.00
2018-10-17T00:24:21.353Z,100.00
2018-10-17T00:26:51.613Z,100.00
2018-10-17T00:29:21.698Z,100.00
2018-10-17T00:31:51.979Z,100.00
2018-10-17T00:34:22.201Z,100.00
2018-10-17T00:36:52.491Z,100.00
2018-10-17T00:39:22.842Z,100.00
2018-10-17T00:41:52.988Z,100.00
2018-10-17T00:44:23.100Z,100.00
2018-10-17T00:46:53.339Z,100.00
2018-10-17T00:49:23.460Z,100.00
2018-10-17T00:51:53.627Z,100.00
2018-10-17T00:54:23.737Z,100.00
2018-10-17T00:56:53.947Z,100.00
2018-10-17T00:59:24.094Z,100.00
2018-10-17T01:01:54.288Z,100.00
2018-10-17T01:04:24.487Z,100.00
2018-10-17T01:06:54.726Z,100.00
2018-10-17T01:09:24.945Z,100.00
2018-10-17T01:11:55.040Z,100.00
2018-10-17T01:14:25.126Z,100.00
2018-10-17T01:16:55.354Z,100.00
2018-10-17T01:19:25.483Z,100.00
2018-10-17T01:21:55.700Z,100.00
2018-10-17T01:24:25.838Z,100.00
2018-10-17T01:26:56.147Z,100.00
2018-10-17T01:29:26.718Z,100.00
2018-10-17T01:31:57.233Z,100.00
2018-10-17T01:34:27.555Z,100.00
2018-10-17T01:36:57.705Z,100.00
2018-10-17T01:39:27.853Z,100.00
2018-10-17T01:41:58.007Z,100.00
2018-10-17T01:44:28.329Z,100.00
2018-10-17T01:46:59.071Z,100.00
2018-10-17T01:49:29.357Z,100.00
2018-10-17T01:51:59.713Z,100.00
2018-10-17T01:54:29.989Z,100.00
2018-10-17T01:57:00.240Z,100.00
2018-10-17T01:59:30.382Z,100.00
2018-10-17T02:02:00.545Z,100.00
2018-10-17T02:04:30.738Z,100.00
2018-10-17T02:07:00.996Z,100.00
2018-10-17T02:09:31.116Z,100.00
2018-10-17T02:12:01.332Z,100.00
2018-10-17T02:14:31.504Z,100.00
2018-10-17T02:17:01.823Z,100.00
2018-10-17T02:19:32.069Z,100.00
2018-10-17T02:22:02.230Z,100.00
2018-10-17T02:24:32.314Z,100.00
2018-10-17T02:27:02.548Z,100.00
2018-10-17T02:29:32.669Z,100.00
2018-10-17T02:32:02.768Z,100.00
2018-10-17T02:34:37.023Z,100.00
2018-10-17T02:37:07.379Z,100.00
2018-10-17T02:39:37.513Z,100.00
2018-10-17T02:42:07.979Z,100.00
2018-10-17T02:44:38.002Z,100.00
2018-10-17T02:47:08.494Z,100.00
2018-10-17T02:49:38.589Z,100.00
2018-10-17T02:52:08.715Z,100.00
2018-10-17T02:54:38.789Z,100.00
2018-10-17T02:57:08.986Z,100.00
2018-10-17T02:59:39.081Z,100.00
2018-10-17T03:02:09.510Z,100.00
2018-10-17T03:04:39.675Z,100.00
2018-10-17T03:07:09.842Z,100.00
2018-10-17T03:09:40.016Z,100.00
2018-10-17T03:12:10.131Z,100.00
2018-10-17T03:14:40.277Z,100.00
2018-10-17T03:17:10.496Z,100.00
2018-10-17T03:19:40.645Z,100.00
2018-10-17T03:22:10.936Z,100.00
2018-10-17T03:24:41.068Z,100.00
2018-10-17T03:27:11.232Z,100.00
2018-10-17T03:29:41.767Z,100.00
2018-10-17T03:32:11.939Z,100.00
2018-10-17T03:34:42.038Z,100.00
2018-10-17T03:37:12.365Z,100.00
2018-10-17T03:39:42.523Z,100.00
2018-10-17T03:42:12.656Z,100.00
2018-10-17T03:44:42.756Z,100.00
2018-10-17T03:47:13.334Z,100.00
2018-10-17T03:49:43.422Z,100.00
2018-10-17T03:52:13.795Z,100.00
2018-10-17T03:54:43.928Z,100.00
2018-10-17T03:57:14.196Z,100.00
2018-10-17T03:59:44.454Z,100.00
2018-10-17T04:02:14.678Z,100.00
2018-10-17T04:04:44.782Z,100.00
2018-10-17T04:07:15.269Z,100.00
2018-10-17T04:09:45.350Z,100.00
2018-10-17T04:12:15.929Z,100.00
2018-10-17T04:14:46.072Z,100.00
2018-10-17T04:17:16.196Z,100.00
2018-10-17T04:19:46.392Z,100.00
2018-10-17T04:22:16.541Z,100.00
2018-10-17T04:24:46.727Z,100.00
2018-10-17T04:27:16.978Z,100.00
2018-10-17T04:29:53.865Z,100.00
2018-10-17T04:32:24.068Z,100.00
2018-10-17T04:34:54.236Z,100.00
2018-10-17T04:37:24.455Z,100.00
2018-10-17T04:39:54.584Z,100.00
2018-10-17T04:42:24.832Z,100.00
2018-10-17T04:44:54.929Z,100.00
2018-10-17T04:47:25.168Z,100.00
2018-10-17T04:50:07.551Z,100.00
2018-10-17T04:52:37.754Z,100.00
2018-10-17T04:55:09.312Z,100.00
2018-10-17T04:57:39.617Z,100.00
2018-10-17T05:00:13.474Z,100.00
2018-10-17T05:02:44.346Z,100.00
2018-10-17T05:05:14.599Z,100.00
2018-10-17T05:07:44.878Z,100.00
2018-10-17T05:10:14.978Z,100.00
2018-10-17T05:12:45.140Z,100.00
2018-10-17T05:15:15.398Z,100.00
2018-10-17T05:17:45.525Z,100.00
2018-10-17T05:20:15.653Z,100.00
2018-10-17T05:22:45.877Z,100.00
2018-10-17T05:25:17.178Z,100.00
2018-10-17T05:27:47.569Z,100.00
2018-10-17T05:30:17.709Z,100.00
2018-10-17T05:32:47.900Z,100.00
2018-10-17T05:35:18.137Z,100.00
2018-10-17T05:37:49.184Z,100.00
2018-10-17T05:40:19.137Z,100.00
2018-10-17T05:42:49.393Z,100.00
2018-10-17T05:45:19.538Z,100.00
2018-10-17T05:47:49.890Z,100.00
2018-10-17T05:50:20.126Z,100.00
2018-10-17T05:52:50.278Z,100.00
2018-10-17T05:55:20.553Z,100.00
2018-10-17T05:57:50.975Z,100.00
2018-10-17T06:00:21.158Z,100.00
2018-10-17T06:02:51.339Z,100.00
2018-10-17T06:05:21.778Z,100.00
2018-10-17T06:07:51.958Z,100.00
2018-10-17T06:10:23.272Z,100.00
2018-10-17T06:12:53.561Z,100.00
2018-10-17T06:15:23.910Z,100.00
2018-10-17T06:17:54.180Z,100.00
2018-10-17T06:20:24.318Z,100.00
2018-10-17T06:22:54.658Z,100.00
2018-10-17T06:25:24.943Z,100.00
2018-10-17T06:27:55.265Z,100.00
2018-10-17T06:30:25.787Z,100.00
2018-10-17T06:32:55.937Z,100.00
2018-10-17T06:35:26.070Z,100.00
2018-10-17T06:37:56.229Z,100.00
2018-10-17T06:40:26.419Z,100.00
2018-10-17T06:42:56.724Z,100.00
2018-10-17T06:45:27.024Z,100.00
2018-10-17T06:47:57.365Z,100.00
2018-10-17T06:50:27.574Z,100.00
2018-10-17T06:52:57.841Z,100.00
2018-10-17T06:55:28.037Z,100.00
2018-10-17T06:57:58.281Z,100.00
2018-10-17T07:00:28.384Z,100.00
2018-10-17T07:02:58.551Z,100.00
2018-10-17T07:05:28.741Z,98.53
2018-10-17T07:07:58.925Z,95.82
2018-10-17T07:10:29.074Z,94.84
2018-10-17T07:12:59.321Z,95.28
2018-10-17T07:15:29.527Z,94.86
2018-10-17T07:17:59.637Z,93.87
2018-10-17T07:20:29.791Z,93.34
2018-10-17T07:22:59.974Z,91.63
2018-10-17T07:25:30.188Z,91.62
2018-10-17T07:28:00.411Z,91.17
2018-10-17T07:30:30.466Z,90.98
2018-10-17T07:33:00.652Z,91.36
2018-10-17T07:35:30.886Z,90.96
2018-10-17T07:38:01.068Z,89.62
2018-10-17T07:40:31.305Z,86.03
2018-10-17T07:43:01.570Z,83.70
2018-10-17T07:45:31.793Z,81.56
2018-10-17T07:48:02.879Z,80.92
2018-10-17T07:50:32.962Z,79.60
2018-10-17T07:53:03.229Z,78.81
2018-10-17T07:55:33.295Z,79.86
2018-10-17T07:58:03.449Z,79.96
2018-10-17T08:00:33.645Z,80.24
2018-10-17T08:03:03.834Z,76.43
2018-10-17T08:05:34.070Z,75.74
2018-10-17T08:08:04.360Z,75.49
2018-10-17T08:10:34.470Z,75.68
2018-10-17T08:13:05.892Z,75.71
2018-10-17T08:15:36.080Z,73.86
2018-10-17T08:18:06.467Z,73.79
2018-10-17T08:20:36.750Z,74.35
2018-10-17T08:23:07.631Z,73.76
2018-10-17T08:25:38.013Z,73.73
2018-10-17T08:28:08.377Z,75.35
2018-10-17T08:30:38.494Z,74.96
2018-10-17T08:33:08.680Z,76.22
2018-10-17T08:35:38.851Z,74.08
2018-10-17T08:38:09.101Z,71.03
2018-10-17T08:40:39.210Z,72.65
2018-10-17T08:43:09.636Z,69.03
2018-10-17T08:45:39.853Z,66.37
2018-10-17T08:48:10.200Z,64.47
2018-10-17T08:50:40.440Z,64.52
2018-10-17T08:53:10.650Z,61.75
2018-10-17T08:55:40.783Z,62.19
2018-10-17T08:58:10.956Z,60.16
2018-10-17T09:00:41.032Z,60.32
2018-10-17T09:03:11.307Z,60.94
2018-10-17T09:05:41.463Z,60.55
2018-10-17T09:08:11.849Z,59.62
2018-10-17T09:10:41.966Z,61.76
2018-10-17T09:13:12.134Z,63.63
2018-10-17T09:15:42.251Z,67.16
2018-10-17T09:18:12.575Z,70.37
2018-10-17T09:20:42.933Z,70.40
2018-10-17T09:23:12.880Z,70.69
2018-10-17T09:25:43.107Z,69.75
2018-10-17T09:28:13.318Z,71.54
2018-10-17T09:30:43.563Z,71.98
2018-10-17T09:33:13.659Z,72.08
2018-10-17T09:35:43.852Z,72.25
2018-10-17T09:38:13.859Z,74.15
2018-10-17T09:40:44.077Z,74.40
2018-10-17T09:43:14.362Z,74.76
2018-10-17T09:45:47.266Z,73.37
2018-10-17T09:48:17.499Z,73.27
2018-10-17T09:50:47.580Z,72.70
2018-10-17T09:53:17.812Z,72.08
2018-10-17T09:55:47.886Z,71.36
2018-10-17T09:58:18.334Z,70.79
2018-10-17T10:00:53.496Z,69.08
2018-10-17T10:03:24.288Z,69.94
2018-10-17T10:05:54.367Z,66.37
2018-10-17T10:08:24.572Z,65.69
2018-10-17T10:10:54.786Z,64.67
2018-10-17T10:13:25.122Z,68.53
2018-10-17T10:15:55.460Z,68.41
2018-10-17T10:18:26.044Z,66.32
2018-10-17T10:20:56.160Z,65.61
2018-10-17T10:23:26.404Z,63.75
2018-10-17T10:25:56.596Z,65.93
2018-10-17T10:28:26.843Z,67.14
2018-10-17T10:30:56.882Z,65.11
2018-10-17T10:33:26.976Z,65.71
2018-10-17T10:35:57.161Z,62.99
2018-10-17T10:38:27.431Z,60.83
2018-10-17T10:40:57.567Z,60.86
2018-10-17T10:43:27.874Z,60.86
2018-10-17T10:45:57.988Z,60.85
2018-10-17T10:48:28.230Z,63.75
2018-10-17T10:50:58.405Z,58.56
2018-10-17T10:53:28.581Z,59.84
2018-10-17T10:55:58.733Z,60.62
2018-10-17T10:58:29.127Z,60.97
2018-10-17T11:00:59.207Z,59.28
2018-10-17T11:03:29.377Z,57.40
2018-10-17T11:05:59.463Z,57.92
2018-10-17T11:08:29.588Z,58.61
2018-10-17T11:10:59.693Z,59.16
2018-10-17T11:13:29.776Z,61.05
2018-10-17T11:15:59.824Z,60.49
2018-10-17T11:18:29.970Z,57.60
2018-10-17T11:21:00.106Z,57.33
2018-10-17T11:23:30.321Z,58.70
2018-10-17T11:26:00.519Z,58.47
2018-10-17T11:28:30.726Z,58.51
2018-10-17T11:31:00.884Z,60.52
2018-10-17T11:33:31.045Z,60.33
2018-10-17T11:36:01.160Z,60.74
2018-10-17T11:38:31.290Z,58.58
2018-10-17T11:43:30.560Z,57.87
2018-10-17T11:46:00.649Z,58.97
2018-10-17T11:48:31.836Z,57.75
2018-10-17T11:51:02.004Z,55.26
2018-10-17T11:53:32.082Z,55.08
2018-10-17T11:56:02.459Z,55.78
2018-10-17T11:58:32.754Z,56.05
2018-10-17T12:01:02.952Z,53.62
2018-10-17T12:03:33.237Z,53.53
2018-10-17T12:06:09.496Z,54.02
2018-10-17T12:08:39.657Z,54.96
2018-10-17T12:11:09.817Z,57.51
2018-10-17T12:13:39.951Z,58.32
2018-10-17T12:16:10.129Z,56.90
2018-10-17T12:18:40.279Z,54.34
2018-10-17T12:21:10.605Z,55.75
2018-10-17T12:23:40.544Z,59.94
2018-10-17T12:26:10.685Z,59.86
2018-10-17T12:28:40.880Z,60.25
2018-10-17T12:31:11.026Z,59.54
2018-10-17T12:33:41.164Z,59.41
2018-10-17T12:36:11.341Z,58.21
2018-10-17T12:38:41.543Z,57.28
2018-10-17T12:41:11.710Z,58.44
2018-10-17T12:43:41.858Z,58.61
2018-10-17T12:46:11.927Z,57.60
2018-10-17T12:48:42.256Z,57.71
2018-10-17T12:51:12.491Z,56.44
2018-10-17T12:53:42.723Z,56.85
2018-10-17T12:56:12.852Z,56.40
2018-10-17T12:58:42.926Z,55.58
2018-10-17T13:01:13.236Z,54.27
2018-10-17T13:03:43.415Z,55.94
2018-10-17T13:06:13.554Z,56.11
2018-10-17T13:08:43.693Z,54.16
2018-10-17T13:11:13.941Z,53.24
2018-10-17T13:13:43.983Z,51.90
2018-10-17T13:16:14.157Z,51.22
2018-10-17T13:18:44.341Z,50.26
2018-10-17T13:21:14.556Z,50.57
2018-10-17T13:23:46.989Z,50.35
2018-10-17T13:26:17.141Z,50.92
2018-10-17T13:28:47.292Z,53.37
2018-10-17T13:31:17.478Z,51.22
2018-10-17T13:33:47.746Z,52.75
2018-10-17T13:36:17.941Z,54.13
2018-10-17T13:38:48.093Z,52.12
2018-10-17T13:41:18.363Z,51.20
2018-10-17T13:43:48.464Z,50.31
2018-10-17T13:46:18.598Z,52.62
2018-10-17T13:48:48.767Z,55.35
2018-10-17T13:51:18.882Z,54.66
2018-10-17T13:53:49.100Z,53.43
2018-10-17T13:56:19.213Z,51.53
2018-10-17T13:58:49.411Z,52.95
2018-10-17T14:01:19.551Z,53.17
2018-10-17T14:03:49.679Z,53.58
2018-10-17T14:06:19.854Z,55.18
2018-10-17T14:08:50.366Z,52.92
2018-10-17T14:11:20.604Z,53.08
2018-10-17T14:13:50.772Z,52.19
2018-10-17T14:16:20.869Z,51.75
2018-10-17T14:18:51.027Z,52.81
2018-10-17T14:21:21.238Z,52.18
2018-10-17T14:23:55.561Z,53.21
2018-10-17T14:26:26.014Z,55.98
2018-10-17T14:28:56.527Z,55.95
2018-10-17T14:31:26.670Z,54.20
2018-10-17T14:33:56.847Z,55.47
2018-10-17T14:36:27.113Z,55.10
2018-10-17T14:38:57.248Z,55.59
2018-10-17T14:41:27.373Z,56.75
2018-10-17T14:43:57.525Z,56.72
2018-10-17T14:46:27.641Z,53.78
2018-10-17T14:49:04.324Z,54.82
2018-10-17T14:51:34.394Z,54.17
2018-10-17T14:54:04.708Z,55.16
2018-10-17T14:56:34.930Z,55.38
2018-10-17T14:59:05.101Z,56.46
2018-10-17T15:01:35.404Z,55.79
2018-10-17T15:04:05.681Z,55.80
2018-10-17T15:06:35.861Z,56.29
2018-10-17T15:09:08.223Z,57.92
2018-10-17T15:11:39.263Z,57.29
2018-10-17T15:14:09.596Z,57.20
2018-10-17T15:16:39.795Z,55.59
2018-10-17T15:19:09.896Z,56.90
2018-10-17T15:21:40.068Z,56.63
2018-10-17T15:24:10.412Z,56.29
2018-10-17T15:26:40.488Z,57.43
2018-10-17T15:29:10.865Z,56.89
2018-10-17T15:31:41.060Z,57.60
2018-10-17T15:34:11.371Z,57.64
2018-10-17T15:36:41.526Z,56.27
2018-10-17T15:39:12.303Z,57.52
2018-10-17T15:41:42.330Z,58.41
2018-10-17T15:44:12.499Z,59.37
2018-10-17T15:46:42.674Z,59.58
2018-10-17T15:49:12.745Z,60.37
2018-10-17T15:51:42.832Z,60.69
2018-10-17T15:54:13.087Z,61.71
2018-10-17T15:56:44.403Z,62.63
2018-10-17T15:59:14.621Z,63.04
2018-10-17T16:01:44.788Z,62.70
2018-10-17T16:04:14.966Z,64.59
2018-10-17T16:06:45.197Z,65.81
2018-10-17T16:09:15.385Z,66.07
2018-10-17T16:11:45.590Z,65.97
2018-10-17T16:14:15.764Z,66.79
2018-10-17T16:16:45.912Z,67.68
2018-10-17T16:19:16.118Z,68.58
2018-10-17T16:21:46.274Z,69.84
2018-10-17T16:24:16.563Z,70.71
2018-10-17T16:26:46.579Z,72.33
2018-10-17T16:29:17.596Z,74.53
2018-10-17T16:31:47.752Z,75.96
2018-10-17T16:34:17.908Z,77.48
2018-10-17T16:36:47.993Z,77.78
2018-10-17T16:39:18.159Z,77.94
2018-10-17T16:41:48.360Z,78.25
2018-10-17T16:44:18.584Z,79.12
2018-10-17T16:46:48.677Z,79.37
2018-10-17T16:49:18.899Z,79.76
2018-10-17T16:51:48.985Z,80.69
2018-10-17T16:54:19.234Z,80.70
2018-10-17T16:56:49.388Z,81.37
2018-10-17T16:59:19.528Z,82.09
2018-10-17T17:01:49.703Z,81.58
2018-10-17T17:04:19.978Z,81.10
2018-10-17T17:06:50.164Z,81.78
2018-10-17T17:09:20.320Z,81.92
2018-10-17T17:11:50.512Z,81.43
2018-10-17T17:14:20.682Z,80.48
2018-10-17T17:16:50.837Z,80.54
2018-10-17T17:19:20.970Z,80.94
2018-10-17T17:21:51.074Z,82.20
2018-10-17T17:24:21.356Z,82.70
2018-10-17T17:26:52.664Z,82.77
2018-10-17T17:29:22.808Z,83.71
2018-10-17T17:31:53.143Z,84.73
2018-10-17T17:34:23.291Z,85.56
2018-10-17T17:36:55.222Z,86.87
2018-10-17T17:39:25.770Z,86.90
2018-10-17T17:41:56.010Z,87.38
2018-10-17T17:44:26.227Z,88.02
2018-10-17T17:46:56.500Z,88.74
2018-10-17T17:49:26.953Z,89.12
2018-10-17T17:51:57.244Z,89.30
2018-10-17T17:54:27.999Z,89.18
2018-10-17T17:57:00.336Z,89.82
2018-10-17T17:59:30.605Z,90.28
2018-10-17T18:02:00.776Z,90.70
2018-10-17T18:04:30.959Z,90.92
2018-10-17T18:07:01.188Z,91.35
2018-10-17T18:09:31.368Z,91.82
2018-10-17T18:12:01.534Z,92.33
2018-10-17T18:14:31.709Z,91.72
2018-10-17T18:17:01.934Z,92.47
2018-10-17T18:19:32.115Z,93.08
2018-10-17T18:22:03.232Z,93.24
2018-10-17T18:24:33.469Z,93.20
2018-10-17T18:27:04.169Z,92.93
2018-10-17T18:29:34.385Z,94.00
2018-10-17T18:32:07.422Z,94.98
2018-10-17T18:34:37.573Z,94.57
2018-10-17T18:37:08.325Z,95.03
2018-10-17T18:39:38.753Z,94.49
2018-10-17T18:42:08.833Z,95.01
2018-10-17T18:44:38.967Z,95.49
2018-10-17T18:47:09.152Z,95.93
2018-10-17T18:49:39.280Z,97.07
2018-10-17T18:52:09.421Z,97.45
2018-10-17T18:54:39.552Z,97.70
2018-10-17T18:57:09.689Z,97.01
2018-10-17T18:59:39.920Z,96.96
2018-10-17T19:02:10.068Z,97.62
2018-10-17T19:04:40.255Z,98.14
2018-10-17T19:07:10.585Z,98.55
2018-10-17T19:09:40.978Z,99.34
2018-10-17T19:12:11.149Z,99.77
2018-10-17T19:14:45.801Z,100.00
2018-10-17T19:17:16.481Z,100.00
2018-10-17T19:19:59.234Z,99.40
2018-10-17T19:22:29.590Z,98.96
2018-10-17T19:24:59.770Z,99.23
2018-10-17T19:27:32.335Z,99.19
2018-10-17T19:30:02.550Z,98.31
2018-10-17T19:32:33.105Z,98.53
2018-10-17T19:35:03.276Z,98.36
2018-10-17T19:37:33.546Z,97.87
2018-10-17T19:40:03.854Z,98.16
2018-10-17T19:42:34.278Z,98.56
2018-10-17T19:45:05.852Z,98.11
2018-10-17T19:47:36.361Z,98.60
2018-10-17T19:50:07.728Z,98.79
2018-10-17T19:52:38.241Z,99.23
2018-10-17T19:55:10.612Z,99.49
2018-10-17T19:57:40.877Z,99.18
2018-10-17T20:00:14.585Z,98.73
2018-10-17T20:02:44.817Z,97.83
2018-10-17T20:05:15.088Z,97.24
2018-10-17T20:07:45.472Z,97.58
2018-10-17T20:10:15.731Z,97.30
2018-10-17T20:12:45.839Z,97.90
2018-10-17T20:15:16.095Z,97.66
2018-10-17T20:17:46.207Z,97.29
2018-10-17T20:20:16.569Z,97.25
2018-10-17T20:22:46.687Z,97.20
2018-10-17T20:25:17.151Z,96.34
2018-10-17T20:27:47.204Z,96.00
2018-10-17T20:30:17.392Z,96.63
2018-10-17T20:32:47.547Z,96.66
2018-10-17T20:35:17.925Z,96.66
2018-10-17T20:37:48.252Z,96.26
2018-10-17T20:40:18.430Z,96.31
2018-10-17T20:42:48.738Z,96.73
2018-10-17T20:45:19.012Z,96.98
2018-10-17T20:47:49.240Z,97.11
2018-10-17T20:50:19.478Z,98.21
2018-10-17T20:52:49.522Z,98.45
2018-10-17T20:55:19.770Z,99.68
2018-10-17T20:57:50.014Z,100.00
2018-10-17T21:00:20.313Z,100.00
2018-10-17T21:02:50.557Z,100.00
2018-10-17T21:05:20.761Z,100.00
2018-10-17T21:07:51.051Z,100.00
2018-10-17T21:10:21.250Z,100.00
2018-10-17T21:12:52.027Z,100.00
2018-10-17T21:15:22.146Z,100.00
2018-10-17T21:17:52.430Z,100.00
2018-10-17T21:20:22.667Z,100.00
2018-10-17T21:22:53.140Z,100.00
2018-10-17T21:25:23.332Z,100.00
2018-10-17T21:27:53.603Z,100.00
2018-10-17T21:30:23.813Z,100.00
2018-10-17T21:32:53.971Z,100.00
2018-10-17T21:35:24.144Z,100.00
2018-10-17T21:37:54.341Z,100.00
2018-10-17T21:40:24.641Z,100.00
2018-10-17T21:42:54.767Z,100.00
2018-10-17T21:45:24.967Z,100.00
2018-10-17T21:47:55.193Z,100.00
2018-10-17T21:50:25.331Z,100.00
2018-10-17T21:52:55.489Z,100.00
2018-10-17T21:55:25.656Z,100.00
2018-10-17T21:57:55.853Z,100.00
2018-10-17T22:00:26.127Z,100.00
2018-10-17T22:02:59.324Z,100.00
2018-10-17T22:05:29.566Z,100.00
2018-10-17T22:07:59.872Z,100.00
2018-10-17T22:10:30.077Z,100.00
2018-10-17T22:13:00.245Z,100.00
2018-10-17T22:15:30.462Z,100.00
2018-10-17T22:18:00.786Z,100.00
2018-10-17T22:20:31.015Z,100.00
2018-10-17T22:23:01.167Z,100.00
2018-10-17T22:25:31.335Z,100.00
2018-10-17T22:28:01.639Z,100.00
2018-10-17T22:30:31.824Z,100.00
2018-10-17T22:33:01.960Z,100.00
2018-10-17T22:35:32.082Z,100.00
2018-10-17T22:38:02.300Z,100.00
2018-10-17T22:40:32.476Z,100.00
2018-10-17T22:43:02.609Z,100.00
2018-10-17T22:45:32.855Z,100.00
2018-10-17T22:48:03.056Z,100.00
2018-10-17T22:50:33.248Z,100.00
2018-10-17T22:53:03.381Z,100.00
2018-10-17T22:55:33.651Z,100.00
2018-10-17T22:58:04.001Z,100.00
2018-10-17T23:00:34.198Z,100.00
2018-10-17T23:03:04.464Z,100.00
2018-10-17T23:05:34.806Z,100.00
2018-10-17T23:08:05.197Z,100.00
2018-10-17T23:10:35.249Z,100.00
2018-10-17T23:13:05.580Z,100.00
2018-10-17T23:15:35.749Z,100.00
2018-10-17T23:18:06.172Z,100.00
2018-10-17T23:20:36.358Z,100.00
2018-10-17T23:23:06.618Z,100.00
2018-10-17T23:25:36.786Z,100.00
2018-10-17T23:28:07.241Z,100.00
2018-10-17T23:30:37.590Z,100.00
2018-10-17T23:33:08.186Z,100.00
2018-10-17T23:35:38.422Z,100.00
2018-10-17T23:38:08.630Z,100.00
2018-10-17T23:40:38.848Z,100.00
2018-10-17T23:43:10.006Z,100.00
2018-10-17T23:45:40.301Z,100.00
2018-10-17T23:48:10.845Z,100.00
2018-10-17T23:50:40.985Z,100.00
2018-10-17T23:53:11.120Z,100.00
2018-10-17T23:55:41.249Z,100.00
2018-10-17T23:58:11.440Z,100.00
